メインページ
METAR-TAF:

METAR-TAF

空港 :

タシュケント国際空港

タシュケント, ウズベキスタン

緯度: 41-16N, 経度: 069-16E, 海抜: 489m

現時点の気象観測

当レポートは49分前の10:30(UTC)に作成
西の風 6kt
気温 5°C
湿度 60%
気圧 1028 hPa
視程: 4000m

METAR: UTTT 141030Z 26006KT 4000 FU NSC 05/M02 Q1028 R08R/CLRD70 NOSIG

時間: 16:19 (11:19 UTC)

予報

当レポートは6時間19分前の05:00(UTC)に作成
予報は14日の 06時(UTC)から 15日の 06時(UTC)まで有効
南西の風 8kt
視程: 4000m
高度1000ftの雲はほとんどない
高度10000ftの雲は散在している
14日の 06時(UTC)から 14日の 08時(UTC)まで一時的に
変向風 2kt
視程: 1200m
高度400ftの雲は散在している

TAF: UTTT 140500Z 1406/1506 22008KT 4000 BR FEW010 SCT100 TEMPO 1406/1408 VRB02KT 1200 BR SCT004

4,000以上の空港の気象観測と天気予報(METAR報とTAF報)

利用可能な観測所は地図上に黄色い丸と赤い丸で示す。

丸の上にカーソルを重ねると観測所名を参照できる。

次にクリックすると気象観測と天気予報を参照できる。

マップの切り替え:黒色「×」印の緑ボタンをクリックして拡大、「-」印の緑ボタンをクリックして縮小、緑色の三角印をクリックして隣りの地図に切り替え


METAR-TAF: